Tiempo atmosférico en la estación meteorológica de Benahavis, Málaga (399 m.)



Fecha
DESCASC
Temp. máxima en grados centígrados (hora)
DESCASC
Temp. mínima en grados centígrados (hora)
DESCASC
Temp. media en grados centígrados
DESCASC
Racha de viento máxima en m/sg (hora)
DESCASC
Velocidad máxima media en intervalos de 10 minutos(hora)
DESCASC
Precipitaciones diarias en mm
DESCASC
Precipitaciones de 00:00 a 06:00 en mm
DESCASC
Precipitaciones de 06:00 a 12:00 en mm
DESCASC
Precipitaciones de 12:00 a 18:00 en mm
DESCASC
Precipitaciones de 18:00 a 24:00 en mm
DESCASC
24-09-2020 33.9 (14:50) 21 (05:10) 27.5 8.61 (15:20) 3.89 (13:40) 0 0 0 0 0
23-09-2020 32.6 (16:20) 20.2 (00:00) 26.4 10 (14:20) 5 (14:40) 0 0 0 0 0
22-09-2020 29.4 (17:10) 19.6 (00:00) 24.5 4.72 (14:00) 2.78 (17:30) 0 0 0 0 0
21-09-2020 29.2 (17:10) 18.8 (00:00) 24 6.11 (15:00) 3.33 (15:30) 0 0 0 0 0
20-09-2020 28.3 (15:50) 16.3 (00:00) 22.3 5 (12:20) 2.78 (15:10) 0 0 0 0 0
19-09-2020 25.8 (15:10) 17.3 (00:00) 21.5 10 (16:40) 5 (16:40) 0 0 0 0 0
18-09-2020 24.4 (17:40) 18.2 (00:00) 21.3 10.28 (19:20) 6.11 (19:30) 0 0 0 0 0
17-09-2020 26.6 (13:50) 20.1 (00:00) 23.4 5.83 (16:20) 2.78 (16:50) 0 0 0 0 0
16-09-2020 26.4 (15:50) 17.6 (00:00) 22 6.39 (15:40) 3.61 (15:30) 0 0 0 0 0
15-09-2020 26.9 (16:10) 18.3 (00:00) 22.6 8.61 (14:20) 3.33 (14:50) 0 0 0 0 0
14-09-2020 25.3 (14:10) 20.4 (00:00) 22.8 8.61 (12:50) 4.44 (00:40) 0 0 0 0 0
13-09-2020 27.8 (14:10) 21.8 (00:00) 24.8 9.17 (14:40) 3.61 (15:30) 0 0 0 0 0
12-09-2020 29.1 (15:00) 19.6 (00:00) 24.4 8.89 (12:20) 3.33 (15:10) 0 0 0 0 0
11-09-2020 26.2 (18:10) 17.4 (00:00) 21.8 6.39 (13:10) 2.78 (16:20) 0 0 0 0 0
10-09-2020 29.6 (17:10) 17.2 (00:00) 23.4 6.39 (15:10) 3.89 (15:10) 0 0 0 0 0
09-09-2020 26.1 (17:10) 18 (00:00) 22.1 7.5 (05:10) 3.89 (03:40) 0 0 0 0 0
08-09-2020 23.1 (15:00) 19.9 (00:00) 21.5 8.89 (14:50) 3.33 (15:10) 0 0 0 0 0
07-09-2020 30.8 (16:30) 18 (07:20) 24.4 5.83 (13:50) 3.06 (16:40) 0 0 0 0 0
06-09-2020 25.5 (16:00) 17.8 (00:00) 21.6 8.33 (12:40) 3.61 (14:20) 0 0 0 0 0
05-09-2020 24.7 (16:20) 17.8 (00:00) 21.3 8.06 (12:20) 3.33 (02:50) 0 0 0 0 0
04-09-2020 25.2 (13:30) 19.2 (00:00) 22.2 9.72 (14:40) 3.89 (14:20) 0 0 0 0 0
03-09-2020 27.3 (17:20) 18.1 (00:00) 22.7 9.17 (12:40) 4.17 (13:00) 0 0 0 0 0
02-09-2020 25.5 (14:30) 16.4 (00:00) 20.9 6.39 (16:50) 3.33 (17:40) 0 0 0 0 0
01-09-2020 25.3 (16:30) 17 (00:00) 21.1 5.28 (01:30) 3.06 (01:50) 0 0 0 0 0
31-08-2020 25.5 (14:00) 18.7 (00:00) 22.1 9.17 (13:30) 4.17 (14:40) 0 0 0 0 0
30-08-2020 26.3 (14:00) 19.3 (00:00) 22.8 11.39 (09:40) 5.28 (08:50) 0 0 0 0 0
29-08-2020 31.6 (15:20) 19.1 (00:00) 25.4 11.11 (18:40) 5.56 (16:10) 0 0 0 0 0
28-08-2020 38.3 (16:20) 23.6 (00:00) 30.9 10.56 (17:20) 6.39 (13:20) 0 0 0 0 0
27-08-2020 33.9 (17:50) 21.5 (00:00) 27.7 5 (17:30) 2.78 (15:10) 0 0 0 0 0
26-08-2020 32.9 (17:10) 20.3 (00:00) 26.6 5.56 (13:10) 3.33 (14:00) 0 0 0 0 0

Gráficas

Temp. máximas Temp. mínimas Temp. medias Precipitaciones Rachas de viento máximas Velocidades máximas media en intervalos de 10 minutos

Datos horarios

Fecha y hora oficial Temperatura (ºC) Velocidad del viento (km/h) Dirección del viento Racha (km/h) Dirección de racha Precipitación (mm) Presión (hPa) Tendencia (hPa) Humedad (%)
2020-09-24 23:00:00 26.2 9 Sudeste 20 Sudeste 0 -- -- 42
2020-09-24 22:00:00 26.3 4 Sur 10 Sur 0 -- -- 43
2020-09-24 21:00:00 27.2 3 Sudoeste 18 Oeste 0 -- -- 40
2020-09-24 20:00:00 28.4 5 Oeste 22 Noroeste 0 -- -- 35
2020-09-24 19:00:00 30.4 6 Noroeste 26 Sudoeste 0 -- -- 32
2020-09-24 18:00:00 32.6 11 Sudoeste 31 Sudoeste 0 -- -- 29
2020-09-24 17:00:00 32 8 Sur 21 Sudoeste 0 -- -- 31
2020-09-24 16:00:00 31.8 11 Sudoeste 31 Sudoeste 0 -- -- 32
2020-09-24 15:00:00 33.6 8 Sudoeste 24 Sudoeste 0 -- -- 29
2020-09-24 14:00:00 33.4 13 Sudoeste 27 Sudoeste 0 -- -- 28
2020-09-24 13:00:00 31.6 14 Sudoeste 26 Sudoeste 0 -- -- 31
2020-09-24 12:00:00 29.7 3 Sur 10 Sudoeste 0 -- -- 36
2020-09-24 11:00:00 26.9 4 Sudoeste 5 Sudoeste 0 -- -- 42
2020-09-24 10:00:00 23.7 0 Calma 6 Nordeste 0 -- -- 54
2020-09-24 09:00:00 21.8 4 Este 7 Este 0 -- -- 57
2020-09-24 08:00:00 21.2 0 Calma 8 Este 0 -- -- 57
2020-09-24 07:00:00 21.4 0 Calma 10 Este 0 -- -- 57
2020-09-24 06:00:00 21.7 7 Este 10 Nordeste 0 -- -- 56
2020-09-24 05:00:00 21.1 0 Calma 4 Sudeste 0 -- -- 57
2020-09-24 04:00:00 21.9 5 Este 9 Este 0 -- -- 55
2020-09-24 03:00:00 22.5 5 Este 10 Este 0 -- -- 53
2020-09-24 02:00:00 23.1 4 Nordeste 17 Nordeste 0 -- -- 52
2020-09-24 01:00:00 23.1 5 Nordeste 7 Nordeste 0 -- -- 51
2020-09-24 00:00:00 23.6 0 Calma 11 Este 0 -- -- 49
2020-09-23 23:00:00 23.9 4 Sudeste 8 Sudeste 0 -- -- 48
2020-09-23 22:00:00 24.4 3 Sudeste 10 Sudoeste 0 -- -- 49
2020-09-23 21:00:00 25.3 3 Sur 18 Sudoeste 0 -- -- 47
2020-09-23 20:00:00 26.6 8 Sudoeste 25 Oeste 0 -- -- 45
2020-09-23 19:00:00 27.9 14 Sudoeste 26 Oeste 0 -- -- 41
2020-09-23 18:00:00 29.6 10 Sudoeste 28 Oeste 0 -- -- 39
2020-09-23 17:00:00 32.5 15 Sudoeste 31 Sudoeste 0 -- -- 33
2020-09-23 16:00:00 32.2 11 Sudoeste 32 Sudoeste 0 -- -- 32
2020-09-23 15:00:00 31.9 14 Sudoeste 36 Sudoeste 0 -- -- 33
2020-09-23 14:00:00 30.5 8 Sur 23 Sudoeste 0 -- -- 39
2020-09-23 13:00:00 26.7 4 Oeste 23 Sudoeste 0 -- -- 47
2020-09-23 12:00:00 26.3 8 Sudoeste 18 Sudoeste 0 -- -- 51
2020-09-23 11:00:00 22.5 2 Oeste 6 Nordeste 0 -- -- 58
2020-09-23 10:00:00 20.5 0 Calma 12 Nordeste 0 -- -- 67
2020-09-23 09:00:00 21.2 5 Nordeste 15 Sudoeste 0 -- -- 56
2020-09-23 08:00:00 22.9 10 Sudoeste 28 Sudoeste 0 -- -- 44
2020-09-23 07:00:00 21.8 13 Sudoeste 33 Sudoeste 0 -- -- 36
2020-09-23 06:00:00 21 4 Sudoeste 9 Oeste 0 -- -- 46
2020-09-23 05:00:00 21.2 2 Este 5 Este 0 -- -- 42
2020-09-23 04:00:00 21.6 5 Este 8 Este 0 -- -- 45
2020-09-23 03:00:00 21.1 2 Este 8 Este 0 -- -- 44
2020-09-23 02:00:00 21.9 5 Este 9 Sudoeste 0 -- -- 44
2020-09-23 01:00:00 22.6 3 Sur 6 Sudoeste 0 -- -- 43
2020-09-23 00:00:00 23.4 0 Calma 9 Sudeste 0 -- -- 47
2020-09-22 23:00:00 23.3 0 Calma 10 Este 0 -- -- 43
2020-09-22 22:00:00 23.2 3 Este 9 Nordeste 0 -- -- 45
2020-09-22 21:00:00 23.9 2 Sur 5 Sur 0 -- -- 45
2020-09-22 20:00:00 25.7 0 Calma 12 Sudoeste 0 -- -- 48
2020-09-22 19:00:00 27.7 8 Sudoeste 14 Sudoeste 0 -- -- 41
2020-09-22 18:00:00 28.8 6 Sudoeste 16 Sudoeste 0 -- -- 37
2020-09-22 17:00:00 29.2 6 Sudoeste 14 Sur 0 -- -- 39
2020-09-22 16:00:00 29.2 7 Sudoeste 17 Sudoeste 0 -- -- 41
2020-09-22 15:00:00 28.5 8 Sudoeste 16 Sudoeste 0 -- -- 40
2020-09-22 14:00:00 27 7 Nordeste 17 Nordeste 0 -- -- 46
2020-09-22 13:00:00 26.7 6 Sudoeste 16 Sudoeste 0 -- -- 44
2020-09-22 12:00:00 26.5 6 Sudoeste 13 Sudoeste 0 -- -- 43
2020-09-22 11:00:00 25.4 3 Sudoeste 7 Sudoeste 0 -- -- 42
2020-09-22 10:00:00 22.7 0 Calma 5 Sur 0 -- -- 49
2020-09-22 09:00:00 19.9 0 Calma 3 Sudeste 0 -- -- 54
2020-09-22 08:00:00 19.7 2 Sudeste 4 Este 0 -- -- 53
2020-09-22 07:00:00 19.8 0 Calma 4 Sudeste 0 -- -- 52
2020-09-22 06:00:00 20.1 0 Calma 5 Nordeste 0 -- -- 52
2020-09-22 05:00:00 21.4 3 Norte 9 Nordeste 0 -- -- 49
2020-09-22 04:00:00 20.9 4 Nordeste 7 Nordeste 0 -- -- 50
2020-09-22 03:00:00 21.3 6 Nordeste 9 Nordeste 0 -- -- 47
2020-09-22 02:00:00 21.9 7 Nordeste 11 Nordeste 0 -- -- 45
2020-09-22 01:00:00 21.8 3 Nordeste 12 Nordeste 0 -- -- 47
2020-09-22 00:00:00 22.1 8 Este 12 Este 0 -- -- 46
2020-09-21 23:00:00 22.1 0 Calma 4 Noroeste 0 -- -- 47
2020-09-21 22:00:00 22.3 0 Calma 6 Nordeste 0 -- -- 50
2020-09-21 21:00:00 22.8 3 Nordeste 4 Nordeste 0 -- -- 55
2020-09-21 20:00:00 24.9 2 Sur 8 Este 0 -- -- 50
2020-09-21 19:00:00 27 5 Sur 14 Sudoeste 0 -- -- 44
2020-09-21 18:00:00 28.2 9 Sudoeste 19 Sudoeste 0 -- -- 41
2020-09-21 17:00:00 29 8 Sur 20 Sudoeste 0 -- -- 41
2020-09-21 16:00:00 28.4 9 Sur 21 Sudoeste 0 -- -- 41
2020-09-21 15:00:00 28.3 9 Sudoeste 22 Sudoeste 0 -- -- 42
2020-09-21 14:00:00 27.9 11 Sudoeste 21 Oeste 0 -- -- 42
2020-09-21 13:00:00 27.1 10 Sudoeste 18 Sudoeste 0 -- -- 45
2020-09-21 12:00:00 26.4 6 Sur 15 Sudoeste 0 -- -- 47
2020-09-21 11:00:00 24.3 4 Este 13 Nordeste 0 -- -- 50
2020-09-21 10:00:00 21.9 7 Nordeste 14 Nordeste 0 -- -- 56
2020-09-21 09:00:00 20.5 5 Nordeste 10 Este 0 -- -- 58
2020-09-21 08:00:00 20 6 Este 10 Este 0 -- -- 56
2020-09-21 07:00:00 19.7 4 Nordeste 10 Nordeste 0 -- -- 58
2020-09-21 06:00:00 19.2 5 Este 9 Este 0 -- -- 61
2020-09-21 05:00:00 18.8 3 Nordeste 10 Nordeste 0 -- -- 61
2020-09-21 04:00:00 19.1 0 Calma 7 Este 0 -- -- 60
2020-09-21 03:00:00 19.6 4 Este 8 Este 0 -- -- 56
2020-09-21 02:00:00 19.6 3 Nordeste 5 Nordeste 0 -- -- 55
2020-09-21 01:00:00 20.3 0 Calma 9 Este 0 -- -- 54
2020-09-21 00:00:00 21.7 0 Calma 17 Nordeste 0 -- -- 48
2020-09-20 23:00:00 21 7 Este 14 Este 0 -- -- 58
2020-09-20 22:00:00 21.5 5 Nordeste 8 Este 0 -- -- 62
2020-09-20 21:00:00 22.8 4 Este 5 Nordeste 0 -- -- 57
2020-09-20 20:00:00 24.5 0 Calma 7 Este 0 -- -- 54
2020-09-20 19:00:00 25 4 Nordeste 11 Nordeste 0 -- -- 48
2020-09-20 18:00:00 25.1 7 Nordeste 15 Nordeste 0 -- -- 48
2020-09-20 17:00:00 27.4 5 Sudoeste 16 Sudoeste 0 -- -- 44
2020-09-20 16:00:00 28.2 7 Sur 18 Sur 0 -- -- 44
2020-09-20 15:00:00 27.2 10 Sudoeste 18 Sudoeste 0 -- -- 41
2020-09-20 14:00:00 26.5 10 Sudoeste 18 Sudoeste 0 -- -- 43
2020-09-20 13:00:00 26.1 7 Sur 18 Sudoeste 0 -- -- 47
2020-09-20 12:00:00 25.2 4 Sudeste 13 Sur 0 -- -- 47
2020-09-20 11:00:00 24 2 Norte 8 Nordeste 0 -- -- 48
2020-09-20 10:00:00 21 6 Nordeste 10 Este 0 -- -- 56
2020-09-20 09:00:00 17.2 5 Nordeste 9 Este 0 -- -- 67
2020-09-20 08:00:00 16.4 3 Nordeste 6 Nordeste 0 -- -- 68
2020-09-20 07:00:00 16.5 0 Calma 4 Nordeste 0 -- -- 69
2020-09-20 06:00:00 16.8 5 Nordeste 9 Este 0 -- -- 66
2020-09-20 05:00:00 16.9 5 Este 7 Este 0 -- -- 68
2020-09-20 04:00:00 17 3 Nordeste 6 Nordeste 0 -- -- 69
2020-09-20 03:00:00 17.3 0 Calma 7 Este 0 -- -- 68
2020-09-20 02:00:00 17.5 5 Nordeste 6 Nordeste 0 -- -- 64
2020-09-20 01:00:00 17.7 0 Calma 13 Este 0 -- -- 64
2020-09-20 00:00:00 18 5 Este 12 Este 0 -- -- 61
2020-09-19 23:00:00 19.2 3 Este 17 Sudoeste 0 -- -- 72
2020-09-19 22:00:00 20.4 8 Sudoeste 17 Sudoeste 0 -- -- 68
2020-09-19 21:00:00 21.1 3 Oeste 18 Sudoeste 0 -- -- 67
2020-09-19 20:00:00 23.1 12 Sudoeste 24 Sudoeste 0 -- -- 65
2020-09-19 19:00:00 24.6 15 Sudoeste 30 Sudoeste 0 -- -- 60
2020-09-19 18:00:00 24.8 8 Sudoeste 24 Sudoeste 0 -- -- 59
2020-09-19 17:00:00 24 10 Sudoeste 36 Sudoeste 0 -- -- 64
2020-09-19 16:00:00 24.8 8 Sudoeste 24 Sudoeste 0 -- -- 62
2020-09-19 15:00:00 25.7 10 Sudoeste 27 Sudoeste 0 -- -- 60
2020-09-19 14:00:00 25 8 Sudoeste 27 Sudoeste 0 -- -- 61
2020-09-19 13:00:00 24.9 7 Oeste 28 Sudoeste 0 -- -- 58
2020-09-19 12:00:00 23.4 14 Sudoeste 24 Oeste 0 -- -- 65
2020-09-19 11:00:00 22 8 Sudoeste 15 Sudoeste 0 -- -- 65
2020-09-19 10:00:00 19.4 6 Sudoeste 18 Sudoeste 0 -- -- 70
2020-09-19 09:00:00 17.6 6 Sudoeste 16 Sudoeste 0 -- -- 79
2020-09-19 08:00:00 17.4 4 Oeste 13 Sudoeste 0 -- -- 78
2020-09-19 07:00:00 18.2 7 Sudoeste 16 Sudoeste 0 -- -- 79
2020-09-19 06:00:00 18 8 Sudoeste 19 Oeste 0 -- -- 78
2020-09-19 05:00:00 18 7 Sudoeste 18 Sudoeste 0 -- -- 80
2020-09-19 04:00:00 17.7 6 Sudoeste 26 Oeste 0 -- -- 82
2020-09-19 03:00:00 18.4 12 Sudoeste 22 Sudoeste 0 -- -- 79
2020-09-19 02:00:00 18.1 9 Sudoeste 19 Sudoeste 0 -- -- 78
2020-09-19 01:00:00 18 7 Sudoeste 15 Sudoeste 0 -- -- 85
2020-09-19 00:00:00 18.7 9 Sudoeste 20 Sudoeste 0 -- -- 85
2020-09-18 23:00:00 19.6 15 Sudoeste 26 Sudoeste 0 -- -- 80
2020-09-18 22:00:00 19.9 13 Sudoeste 28 Sudoeste 0 -- -- 77
2020-09-18 21:00:00 20.5 15 Sudoeste 29 Sudoeste 0 -- -- 75
2020-09-18 20:00:00 21.7 18 Sudoeste 37 Sudoeste 0 -- -- 63
2020-09-18 19:00:00 23.4 16 Sudoeste 27 Sudoeste 0 -- -- 64
2020-09-18 18:00:00 23.8 10 Sudoeste 26 Sudoeste 0 -- -- 68
2020-09-18 17:00:00 23.8 13 Sudoeste 28 Sudoeste 0 -- -- 73
2020-09-18 16:00:00 22.1 10 Sudoeste 27 Sudoeste 0 -- -- 84
2020-09-18 15:00:00 21 4 Sudoeste 17 Sudoeste 0 -- -- 84
2020-09-18 14:00:00 21.5 5 Sudoeste 22 Sudoeste 0 -- -- 87
2020-09-18 13:00:00 23.2 11 Sudoeste 20 Sudoeste 0 -- -- 77
2020-09-18 12:00:00 20.4 5 Noroeste 22 Nordeste 0 -- -- 93
2020-09-18 11:00:00 19.7 5 Norte 15 Nordeste 0 -- -- 97
2020-09-18 10:00:00 18.7 6 Sur 28 Nordeste 0 -- -- 95
2020-09-18 09:00:00 18.3 6 Nordeste 21 Este 0 -- -- 96
2020-09-18 08:00:00 18.3 3 Este 14 Nordeste 0 -- -- 97
2020-09-18 07:00:00 18.4 6 Nordeste 19 Noroeste 0 -- -- 97
2020-09-18 06:00:00 18.6 6 Oeste 18 Sudoeste 0 -- -- 96
2020-09-18 05:00:00 19 6 Sudoeste 17 Sudoeste 0 -- -- 92
2020-09-18 04:00:00 19.1 8 Sudoeste 14 Sudoeste 0 -- -- 88
2020-09-18 03:00:00 19.4 8 Sudoeste 18 Sudoeste 0 -- -- 83
2020-09-18 02:00:00 19.9 13 Sudoeste 33 Oeste 0 -- -- 86
2020-09-18 01:00:00 19.9 3 Oeste 9 Noroeste 0 -- -- 86
2020-09-18 00:00:00 20.1 5 Sudoeste 11 Sudoeste 0 -- -- 84
2020-09-17 23:00:00 20.4 8 Sudoeste 20 Sudoeste 0 -- -- 80
2020-09-17 22:00:00 20.5 9 Sudoeste 17 Noroeste 0 -- -- 88
2020-09-17 21:00:00 21.4 3 Oeste 7 Sudoeste 0 -- -- 86
2020-09-17 20:00:00 22.2 3 Norte 15 Nordeste 0 -- -- 82
2020-09-17 19:00:00 23.4 6 Este 14 Este 0 -- -- 72
2020-09-17 18:00:00 24.6 3 Oeste 15 Nordeste 0 -- -- 69
2020-09-17 17:00:00 25.3 8 Nordeste 21 Este 0 -- -- 62
2020-09-17 16:00:00 25.8 4 Oeste 19 Nordeste 0 -- -- 61
2020-09-17 15:00:00 25.6 6 Nordeste 19 Nordeste 0 -- -- 62
2020-09-17 14:00:00 26.5 8 Nordeste 19 Este 0 -- -- 57
2020-09-17 13:00:00 24.8 7 Nordeste 15 Nordeste 0 -- -- 67
2020-09-17 12:00:00 23.3 3 Sudoeste 11 Nordeste 0 -- -- 74
2020-09-17 11:00:00 22.6 3 Oeste 6 Oeste 0 -- -- 84
2020-09-17 10:00:00 21.2 2 Sudoeste 8 Sudoeste 0 -- -- 90
2020-09-17 09:00:00 20.8 2 Norte 4 Norte 0 -- -- 90
2020-09-17 08:00:00 20.8 0 Calma 11 Nordeste 0 -- -- 90
2020-09-17 07:00:00 20.7 4 Nordeste 15 Nordeste 0 -- -- 92
2020-09-17 06:00:00 20.8 6 Nordeste 12 Norte 0 -- -- 93
2020-09-17 05:00:00 20.9 4 Nordeste 11 Nordeste 0 -- -- 91
2020-09-17 04:00:00 21 0 Calma 9 Nordeste 0 -- -- 89
2020-09-17 03:00:00 20.9 5 Norte 12 Nordeste 0 -- -- 89
2020-09-17 02:00:00 20.8 2 Sudoeste 7 Nordeste 0 -- -- 88
2020-09-17 01:00:00 20.7 2 Nordeste 6 Norte 0 -- -- 89
2020-09-17 00:00:00 20.6 3 Sudeste 13 Nordeste 0 -- -- 87
2020-09-16 23:00:00 20.7 9 Nordeste 17 Nordeste 0 -- -- 89
2020-09-16 22:00:00 21.2 2 Norte 9 Nordeste 0 -- -- 86
2020-09-16 21:00:00 21.4 4 Nordeste 8 Nordeste 0 -- -- 85
2020-09-16 20:00:00 22.4 3 Sur 14 Nordeste 0 -- -- 78
2020-09-16 19:00:00 23.3 4 Norte 13 Nordeste 0 -- -- 72
2020-09-16 18:00:00 24.1 8 Nordeste 17 Nordeste 0 -- -- 67
2020-09-16 17:00:00 25.8 8 Sudoeste 15 Sur 0 -- -- 63
2020-09-16 16:00:00 26.2 6 Sur 23 Sudoeste 0 -- -- 65
2020-09-16 15:00:00 25.1 10 Nordeste 21 Nordeste 0 -- -- 68
2020-09-16 14:00:00 24.3 9 Nordeste 19 Nordeste 0 -- -- 70
2020-09-16 13:00:00 23.7 8 Nordeste 20 Este 0 -- -- 67
2020-09-16 12:00:00 23.4 6 Nordeste 17 Este 0 -- -- 67
2020-09-16 11:00:00 23.2 6 Nordeste 16 Nordeste 0 -- -- 67
2020-09-16 10:00:00 21 2 Sudoeste 8 Nordeste 0 -- -- 74
2020-09-16 09:00:00 18.5 0 Calma 3 Este 0 -- -- 83
2020-09-16 08:00:00 17.6 0 Calma 4 Nordeste 0 -- -- 87
2020-09-16 07:00:00 18 2 Sudeste 4 Sudeste 0 -- -- 90
2020-09-16 06:00:00 18 0 Calma 4 Sudoeste 0 -- -- 91
2020-09-16 05:00:00 18.1 0 Calma 3 Sudeste 0 -- -- 91
2020-09-16 04:00:00 18 0 Calma 4 Nordeste 0 -- -- 90
2020-09-16 03:00:00 18.7 0 Calma 10 Este 0 -- -- 92
2020-09-16 02:00:00 19.4 4 Nordeste 8 Nordeste 0 -- -- 91
2020-09-16 01:00:00 19.8 0 Calma 4 Nordeste 0 -- -- 94
2020-09-16 00:00:00 19.7 0 Calma 5 Nordeste 0 -- -- 92
2020-09-15 23:00:00 20.2 2 Este 4 Sudeste 0 -- -- 89
2020-09-15 22:00:00 20.8 0 Calma 8 Nordeste 0 -- -- 87
2020-09-15 21:00:00 21.5 6 Este 10 Nordeste 0 -- -- 84
2020-09-15 20:00:00 23.4 6 Sur 10 Sur 0 -- -- 75
2020-09-15 19:00:00 23.8 6 Nordeste 15 Sudoeste 0 -- -- 73
2020-09-15 18:00:00 25.9 9 Sur 14 Sudoeste 0 -- -- 65
2020-09-15 17:00:00 26.5 5 Nordeste 17 Oeste 0 -- -- 64
2020-09-15 16:00:00 26.6 7 Sur 19 Sur 0 -- -- 63
2020-09-15 15:00:00 25.9 7 Nordeste 31 Nordeste 0 -- -- 64
2020-09-15 14:00:00 25.5 9 Nordeste 26 Nordeste 0 -- -- 66
2020-09-15 13:00:00 24.8 10 Nordeste 21 Nordeste 0 -- -- 68
2020-09-15 12:00:00 24.8 4 Oeste 15 Nordeste 0 -- -- 66
2020-09-15 11:00:00 24.1 6 Nordeste 19 Nordeste 0 -- -- 64
2020-09-15 10:00:00 22.2 5 Nordeste 12 Nordeste 0 -- -- 70
2020-09-15 09:00:00 19.8 5 Nordeste 12 Este 0 -- -- 73
2020-09-15 08:00:00 18.5 2 Norte 10 Nordeste 0 -- -- 72
2020-09-15 07:00:00 18.6 5 Nordeste 10 Este 0 -- -- 72
2020-09-15 06:00:00 18.7 2 Este 6 Este 0 -- -- 85
2020-09-15 05:00:00 19.1 2 Sur 9 Nordeste 0 -- -- 83
2020-09-15 04:00:00 19.3 3 Nordeste 10 Nordeste 0 -- -- 81
2020-09-15 03:00:00 19.6 4 Este 9 Sudeste 0 -- -- 75
2020-09-15 02:00:00 19.5 0 Calma 4 Nordeste 0 -- -- 84
2020-09-15 01:00:00 20.3 0 Calma 12 Nordeste 0 -- -- 80
2020-09-15 00:00:00 20.4 3 Nordeste 11 Este 0 -- -- 86
2020-09-14 23:00:00 20.7 3 Nordeste 13 Este 0 -- -- 86
2020-09-14 22:00:00 20.8 5 Nordeste 10 Nordeste 0 -- -- 86
2020-09-14 21:00:00 21.5 3 Nordeste 11 Este 0 -- -- 84
2020-09-14 20:00:00 21.9 5 Este 15 Nordeste 0 -- -- 83
2020-09-14 19:00:00 22.6 7 Nordeste 19 Este 0 -- -- 81
2020-09-14 18:00:00 23.3 10 Nordeste 31 Nordeste 0 -- -- 78
2020-09-14 17:00:00 24.5 9 Nordeste 27 Nordeste 0 -- -- 68
2020-09-14 16:00:00 24.8 10 Nordeste 30 Nordeste 0 -- -- 65
2020-09-14 15:00:00 24 9 Nordeste 31 Nordeste 0 -- -- 69
2020-09-14 14:00:00 25 9 Nordeste 28 Nordeste 0 -- -- 63
2020-09-14 13:00:00 25.1 10 Nordeste 31 Norte 0 -- -- 59
2020-09-14 12:00:00 25.2 10 Este 29 Este 0 -- -- 57
2020-09-14 11:00:00 24.7 8 Nordeste 23 Norte 0 -- -- 58
2020-09-14 10:00:00 23.9 8 Nordeste 18 Este 0 -- -- 60
2020-09-14 09:00:00 22.1 3 Nordeste 13 Este 0 -- -- 66
2020-09-14 08:00:00 22 2 Este 13 Este 0 -- -- 64
2020-09-14 07:00:00 22 3 Sudoeste 12 Nordeste 0 -- -- 65
2020-09-14 06:00:00 22.7 3 Sur 20 Nordeste 0 -- -- 64
2020-09-14 05:00:00 23.1 7 Nordeste 25 Nordeste 0 -- -- 56
2020-09-14 04:00:00 23 6 Este 24 Este 0 -- -- 60
2020-09-14 03:00:00 23 5 Sudeste 23 Norte 0 -- -- 59
2020-09-14 02:00:00 23.4 5 Nordeste 22 Norte 0 -- -- 54
2020-09-14 01:00:00 23.7 12 Nordeste 31 Norte 0 -- -- 52
2020-09-14 00:00:00 22.5 8 Nordeste 24 Nordeste 0 -- -- 64
2020-09-13 23:00:00 22.2 2 Sur 8 Nordeste 0 -- -- 65
2020-09-13 22:00:00 22.6 2 Sudoeste 8 Este 0 -- -- 62
2020-09-13 21:00:00 22.8 4 Este 12 Nordeste 0 -- -- 60
2020-09-13 20:00:00 23.8 7 Nordeste 19 Nordeste 0 -- -- 61
2020-09-13 19:00:00 24.6 12 Nordeste 21 Este 0 -- -- 57
2020-09-13 18:00:00 26 9 Nordeste 24 Nordeste 0 -- -- 53
2020-09-13 17:00:00 27.1 10 Este 28 Nordeste 0 -- -- 49
2020-09-13 16:00:00 27.6 9 Nordeste 28 Nordeste 0 -- -- 48
2020-09-13 15:00:00 27.5 9 Este 33 Nordeste 0 -- -- 45
2020-09-13 14:00:00 27.7 9 Este 29 Nordeste 0 -- -- 42
2020-09-13 13:00:00 27 8 Nordeste 24 Nordeste 0 -- -- 46
2020-09-13 12:00:00 26.4 8 Nordeste 26 Nordeste 0 -- -- 46
2020-09-13 11:00:00 25.1 9 Nordeste 28 Nordeste 0 -- -- 49
2020-09-13 10:00:00 24.2 5 Este 19 Nordeste 0 -- -- 53
2020-09-13 09:00:00 23.5 5 Este 18 Este 0 -- -- 54
2020-09-13 08:00:00 23.2 3 Este 15 Este 0 -- -- 54
2020-09-13 07:00:00 22.9 5 Nordeste 21 Este 0 -- -- 53
2020-09-13 06:00:00 22.8 5 Sudeste 20 Este 0 -- -- 53
2020-09-13 05:00:00 22.5 4 Este 17 Nordeste 0 -- -- 52
2020-09-13 04:00:00 21.9 5 Nordeste 14 Nordeste 0 -- -- 60
2020-09-13 03:00:00 22 3 Nordeste 14 Nordeste 0 -- -- 62
2020-09-13 02:00:00 22.5 3 Nordeste 19 Nordeste 0 -- -- 58
2020-09-13 01:00:00 22.4 4 Nordeste 18 Nordeste 0 -- -- 54
2020-09-13 00:00:00 22.8 4 Nordeste 17 Nordeste 0 -- -- 50
2020-09-12 23:00:00 23.5 4 Nordeste 14 Nordeste 0 -- -- 46
2020-09-12 22:00:00 24.1 3 Nordeste 13 Nordeste 0 -- -- 42
2020-09-12 21:00:00 25.1 5 Nordeste 15 Este 0 -- -- 37
2020-09-12 20:00:00 25.9 4 Nordeste 18 Este 0 -- -- 39
2020-09-12 19:00:00 26.9 5 Nordeste 17 Nordeste 0 -- -- 39
2020-09-12 18:00:00 28.2 7 Este 26 Nordeste 0 -- -- 37
2020-09-12 17:00:00 28.5 8 Este 24 Nordeste 0 -- -- 37
2020-09-12 16:00:00 28.5 9 Nordeste 31 Nordeste 0 -- -- 39
2020-09-12 15:00:00 29.1 6 Este 26 Nordeste 0 -- -- 38
2020-09-12 14:00:00 28.1 12 Nordeste 27 Este 0 -- -- 40
2020-09-12 13:00:00 28.2 8 Nordeste 32 Nordeste 0 -- -- 37
2020-09-12 12:00:00 28 8 Este 28 Este 0 -- -- 37
2020-09-12 11:00:00 27 6 Este 19 Este 0 -- -- 37
2020-09-12 10:00:00 25.2 5 Este 19 Nordeste 0 -- -- 39
2020-09-12 09:00:00 22.3 6 Nordeste 15 Nordeste 0 -- -- 41
2020-09-12 08:00:00 21.3 4 Este 9 Este 0 -- -- 43
2020-09-12 07:00:00 20.3 2 Nordeste 7 Este 0 -- -- 46
2020-09-12 06:00:00 20.9 4 Este 10 Nordeste 0 -- -- 44
2020-09-12 05:00:00 20.5 0 Calma 6 Nordeste 0 -- -- 46
2020-09-12 04:00:00 20 0 Calma 6 Nordeste 0 -- -- 47
2020-09-12 03:00:00 19.7 3 Este 5 Este 0 -- -- 52
2020-09-12 02:00:00 19.6 0 Calma 5 Nordeste 0 -- -- 59
2020-09-12 01:00:00 19.9 0 Calma 5 Nordeste 0 -- -- 60
2020-09-12 00:00:00 20.4 0 Calma 4 Nordeste 0 -- -- 57
2020-09-11 23:00:00 20.8 0 Calma 6 Este 0 -- -- 65
2020-09-11 22:00:00 20.7 0 Calma 4 Sudeste 0 -- -- 66
2020-09-11 21:00:00 21.8 0 Calma 4 Nordeste 0 -- -- 63
2020-09-11 20:00:00 23.2 2 Nordeste 10 Sudoeste 0 -- -- 60
2020-09-11 19:00:00 26.1 6 Sudoeste 13 Sur 0 -- -- 52
2020-09-11 18:00:00 26.1 5 Sudoeste 15 Sudoeste 0 -- -- 52
2020-09-11 17:00:00 25.1 6 Nordeste 18 Nordeste 0 -- -- 57
2020-09-11 16:00:00 25.8 9 Nordeste 19 Nordeste 0 -- -- 53
2020-09-11 15:00:00 25.3 9 Nordeste 18 Nordeste 0 -- -- 53
2020-09-11 14:00:00 25.4 5 Sudeste 23 Nordeste 0 -- -- 50
2020-09-11 13:00:00 25.8 6 Nordeste 21 Norte 0 -- -- 49
2020-09-11 12:00:00 25.5 7 Nordeste 18 Nordeste 0 -- -- 50
2020-09-11 11:00:00 25 4 Nordeste 15 Nordeste 0 -- -- 44
2020-09-11 10:00:00 22.8 4 Este 14 Nordeste 0 -- -- 47
2020-09-11 09:00:00 18.9 4 Nordeste 11 Nordeste 0 -- -- 59
2020-09-11 08:00:00 17.5 0 Calma 4 Este 0 -- -- 63
2020-09-11 07:00:00 17.7 0 Calma 3 Sudeste 0 -- -- 62
2020-09-11 06:00:00 18 0 Calma 4 Nordeste 0 -- -- 61
2020-09-11 05:00:00 18.2 3 Este 4 Nordeste 0 -- -- 61
2020-09-11 04:00:00 18.6 2 Sudeste 5 Nordeste 0 -- -- 58
2020-09-11 03:00:00 18.7 0 Calma 5 Este 0 -- -- 58
2020-09-11 02:00:00 19 0 Calma 3 Este 0 -- -- 57
2020-09-11 01:00:00 19.1 0 Calma 4 Nordeste 0 -- -- 58
2020-09-11 00:00:00 19.4 3 Nordeste 5 Nordeste 0 -- -- 62
2020-09-10 23:00:00 19.9 5 Nordeste 6 Nordeste 0 -- -- 55
2020-09-10 22:00:00 20.7 3 Nordeste 5 Este 0 -- -- 64
2020-09-10 21:00:00 22.4 0 Calma 6 Nordeste 0 -- -- 60
2020-09-10 20:00:00 25.1 2 Norte 10 Sur 0 -- -- 53
2020-09-10 19:00:00 27.2 7 Sur 14 Sudoeste 0 -- -- 47
2020-09-10 18:00:00 28.2 9 Sur 19 Sudoeste 0 -- -- 47
2020-09-10 17:00:00 29.3 8 Sudoeste 20 Sudoeste 0 -- -- 43
2020-09-10 16:00:00 28.2 9 Sudoeste 23 Sudoeste 0 -- -- 49
2020-09-10 15:00:00 28.1 9 Sudoeste 20 Sudoeste 0 -- -- 42
2020-09-10 14:00:00 27.1 8 Sudoeste 20 Sur 0 -- -- 45
2020-09-10 13:00:00 26.9 7 Sur 17 Oeste 0 -- -- 43
2020-09-10 12:00:00 25.9 11 Sudoeste 17 Sudoeste 0 -- -- 45
2020-09-10 11:00:00 24.5 4 Oeste 7 Sudoeste 0 -- -- 48
2020-09-10 10:00:00 21.5 2 Sudoeste 3 Sudoeste 0 -- -- 54
2020-09-10 09:00:00 18.5 0 Calma 6 Nordeste 0 -- -- 56
2020-09-10 08:00:00 17.8 3 Nordeste 5 Nordeste 0 -- -- 57
2020-09-10 07:00:00 17.6 0 Calma 3 Sudeste 0 -- -- 59
2020-09-10 06:00:00 17.8 0 Calma 6 Nordeste 0 -- -- 63
2020-09-10 05:00:00 17.5 0 Calma 5 Sudeste 0 -- -- 61
2020-09-10 04:00:00 17.4 4 Nordeste 6 Nordeste 0 -- -- 63
2020-09-10 03:00:00 17.3 0 Calma 4 Nordeste 0 -- -- 66
2020-09-10 02:00:00 17.5 3 Nordeste 5 Nordeste 0 -- -- 69
2020-09-10 01:00:00 17.7 0 Calma 4 Nordeste 0 -- -- 76
2020-09-10 00:00:00 18.2 0 Calma 3 Sur 0 -- -- 82
2020-09-09 23:00:00 18.5 0 Calma 5 Este 0 -- -- 76
2020-09-09 22:00:00 19.2 0 Calma 4 Nordeste 0 -- -- 72
2020-09-09 21:00:00 20.6 3 Nordeste 7 Nordeste 0 -- -- 70
2020-09-09 20:00:00 22 3 Nordeste 13 Nordeste 0 -- -- 61
2020-09-09 19:00:00 24.4 6 Este 17 Sudoeste 0 -- -- 53
2020-09-09 18:00:00 24 6 Nordeste 17 Sudoeste 0 -- -- 47
2020-09-09 17:00:00 25.8 6 Sudoeste 18 Sudoeste 0 -- -- 45
2020-09-09 16:00:00 25.7 6 Sudeste 23 Nordeste 0 -- -- 41
2020-09-09 15:00:00 24.4 6 Norte 24 Nordeste 0 -- -- 48
2020-09-09 14:00:00 24.8 8 Nordeste 23 Nordeste 0 -- -- 46
2020-09-09 13:00:00 24.4 6 Nordeste 22 Este 0 -- -- 49
2020-09-09 12:00:00 24 6 Nordeste 19 Este 0 -- -- 61
2020-09-09 11:00:00 23.1 5 Norte 14 Nordeste 0 -- -- 59
2020-09-09 10:00:00 21.2 5 Este 19 Nordeste 0 -- -- 64
2020-09-09 09:00:00 18.3 0 Calma 13 Nordeste 0 -- -- 72
2020-09-09 08:00:00 18.6 2 Este 18 Norte 0 -- -- 68
2020-09-09 07:00:00 18.9 7 Nordeste 18 Nordeste 0 -- -- 67
2020-09-09 06:00:00 19.3 7 Nordeste 27 Nordeste 0 -- -- 65
2020-09-09 05:00:00 19.5 10 Nordeste 22 Nordeste 0 -- -- 61
2020-09-09 04:00:00 19.8 9 Nordeste 26 Nordeste 0 -- -- 59
2020-09-09 03:00:00 19.7 9 Nordeste 22 Nordeste 0 -- -- 61
2020-09-09 02:00:00 19.7 7 Norte 24 Nordeste 0 -- -- 63
2020-09-09 01:00:00 19.8 9 Nordeste 20 Nordeste 0 -- -- 63
2020-09-09 00:00:00 20 7 Nordeste 15 Nordeste 0 -- -- 63
2020-09-08 23:00:00 20.3 6 Nordeste 23 Este 0 -- -- 58
2020-09-08 22:00:00 20 6 Nordeste 14 Nordeste 0 -- -- 66
2020-09-08 21:00:00 20.7 3 Nordeste 16 Nordeste 0 -- -- 67
2020-09-08 20:00:00 21.7 6 Este 21 Nordeste 0 -- -- 67
2020-09-08 19:00:00 22.3 8 Nordeste 23 Nordeste 0 -- -- 67
2020-09-08 18:00:00 22.9 10 Nordeste 27 Nordeste 0 -- -- 66
2020-09-08 17:00:00 22.5 10 Nordeste 25 Nordeste 0 -- -- 68
2020-09-08 16:00:00 22.2 9 Nordeste 29 Nordeste 0 -- -- 74
2020-09-08 15:00:00 23.1 11 Nordeste 32 Nordeste 0 -- -- 72
2020-09-08 14:00:00 22.2 9 Nordeste 26 Nordeste 0 -- -- 74
2020-09-08 13:00:00 21.9 8 Este 21 Nordeste 0 -- -- 75
2020-09-08 12:00:00 22.1 5 Este 25 Nordeste 0 -- -- 72
2020-09-08 11:00:00 22.3 6 Este 24 Nordeste 0 -- -- 69
2020-09-08 10:00:00 21.5 6 Nordeste 25 Nordeste 0 -- -- 67
2020-09-08 09:00:00 20.9 5 Nordeste 22 Nordeste 0 -- -- 77
2020-09-08 08:00:00 20.8 5 Este 15 Este 0 -- -- 77
2020-09-08 07:00:00 20.9 5 Nordeste 20 Nordeste 0 -- -- 81
2020-09-08 06:00:00 21.1 5 Este 13 Este 0 -- -- 83
2020-09-08 05:00:00 21.2 5 Nordeste 25 Nordeste 0 -- -- 80
2020-09-08 04:00:00 21.3 8 Nordeste 20 Nordeste 0 -- -- 73
2020-09-08 03:00:00 21.2 0 Calma 14 Nordeste 0 -- -- 74
2020-09-08 02:00:00 21.1 4 Este 13 Nordeste 0 -- -- 78
2020-09-08 01:00:00 21.1 5 Nordeste 10 Nordeste 0 -- -- 90
2020-09-08 00:00:00 21.1 3 Nordeste 5 Nordeste 0 -- -- 89
2020-09-07 23:00:00 20.7 2 Nordeste 12 Nordeste 0 -- -- 89
2020-09-07 22:00:00 22 5 Nordeste 12 Nordeste 0 -- -- 81
2020-09-07 21:00:00 24.5 0 Calma 7 Sudoeste 0 -- -- 69
2020-09-07 20:00:00 26.7 4 Sudoeste 9 Sudoeste 0 -- -- 63
2020-09-07 19:00:00 27.6 3 Norte 14 Sudoeste 0 -- -- 60
2020-09-07 18:00:00 28.6 3 Sudoeste 17 Sur 0 -- -- 57
2020-09-07 17:00:00 30.4 8 Sur 19 Sudoeste 0 -- -- 51
2020-09-07 16:00:00 29.9 10 Sudoeste 20 Sudoeste 0 -- -- 51
2020-09-07 15:00:00 29.9 9 Sudoeste 17 Oeste 0 -- -- 52
2020-09-07 14:00:00 28.6 8 Sur 21 Sudoeste 0 -- -- 53
2020-09-07 13:00:00 27.4 8 Sudoeste 17 Sudoeste 0 -- -- 56
2020-09-07 12:00:00 26.6 7 Sudoeste 14 Sudoeste 0 -- -- 57
2020-09-07 11:00:00 24.2 5 Sudoeste 7 Sudoeste 0 -- -- 61
2020-09-07 10:00:00 21.1 3 Sudoeste 5 Sudoeste 0 -- -- 76
2020-09-07 09:00:00 18.6 0 Calma 4 Nordeste 0 -- -- 85
2020-09-07 08:00:00 18 0 Calma 3 Este 0 -- -- 88
2020-09-07 07:00:00 18.2 0 Calma 3 Sur 0 -- -- 86
2020-09-07 06:00:00 18.6 0 Calma 3 Este 0 -- -- 86
2020-09-07 05:00:00 18.9 0 Calma 5 Este 0 -- -- 83
2020-09-07 04:00:00 18.9 0 Calma 4 Nordeste 0 -- -- 84
2020-09-07 03:00:00 19.1 4 Nordeste 6 Este 0 -- -- 83
2020-09-07 02:00:00 19.4 0 Calma 7 Nordeste 0 -- -- 82
2020-09-07 01:00:00 19.5 0 Calma -- -- 0 -- -- 82
2020-09-07 00:00:00 19.5 0 Calma -- -- 0 -- -- 80
2020-09-06 23:00:00 19.9 0 Calma -- -- 0 -- -- 77
2020-09-06 22:00:00 20.5 0 Calma 5 Este 0 -- -- 75
2020-09-06 21:00:00 21.4 4 Este 8 Este 0 -- -- 72
2020-09-06 20:00:00 22.5 6 Nordeste 12 Nordeste 0 -- -- 68
2020-09-06 19:00:00 23.3 4 Norte 16 Nordeste 0 -- -- 66
2020-09-06 18:00:00 24.9 5 Nordeste 16 Nordeste 0 -- -- 65
2020-09-06 17:00:00 24.9 6 Nordeste 17 Nordeste 0 -- -- 66
2020-09-06 16:00:00 25.5 7 Sur 22 Nordeste 0 -- -- 63
2020-09-06 15:00:00 24.6 9 Nordeste 30 Nordeste 0 -- -- 67
2020-09-06 14:00:00 24.5 11 Nordeste 27 Norte 0 -- -- 67
2020-09-06 13:00:00 24.1 11 Nordeste 30 Nordeste 0 -- -- 68
2020-09-06 12:00:00 24.2 6 Norte 22 Nordeste 0 -- -- 68
2020-09-06 11:00:00 23.2 8 Este 21 Este 0 -- -- 70
2020-09-06 10:00:00 21.2 5 Este 13 Nordeste 0 -- -- 73
2020-09-06 09:00:00 18.3 0 Calma 5 Nordeste 0 -- -- 78
2020-09-06 08:00:00 18 3 Este 6 Nordeste 0 -- -- 81
2020-09-06 07:00:00 17.8 0 Calma 4 Este 0 -- -- 82
2020-09-06 06:00:00 18.3 0 Calma 6 Sudeste 0 -- -- 80
2020-09-06 05:00:00 19.3 3 Oeste 11 Nordeste 0 -- -- 77
2020-09-06 04:00:00 19 2 Este 11 Norte 0 -- -- 81
2020-09-06 03:00:00 19.1 2 Sudoeste 7 Nordeste 0 -- -- 81
2020-09-06 02:00:00 19.4 2 Este 8 Este 0 -- -- 80
2020-09-06 01:00:00 19.4 2 Este 9 Norte 0 -- -- 81
2020-09-06 00:00:00 19.1 0 Calma 7 Nordeste 0 -- -- 83
2020-09-05 23:00:00 19 0 Calma 3 Nordeste 0 -- -- 81
2020-09-05 22:00:00 19.7 0 Calma 4 Este 0 -- -- 82
2020-09-05 21:00:00 20.4 3 Nordeste 12 Nordeste 0 -- -- 78
2020-09-05 20:00:00 21.4 8 Nordeste 15 Nordeste 0 -- -- 73
2020-09-05 19:00:00 22.3 6 Nordeste 19 Nordeste 0 -- -- 72
2020-09-05 18:00:00 23.3 6 Nordeste 21 Nordeste 0 -- -- 68
2020-09-05 17:00:00 23.9 9 Nordeste 20 Nordeste 0 -- -- 67
2020-09-05 16:00:00 24.5 6 Noroeste 20 Nordeste 0 -- -- 65
2020-09-05 15:00:00 24.5 7 Nordeste 28 Nordeste 0 -- -- 66
2020-09-05 14:00:00 24.5 8 Norte 23 Nordeste 0 -- -- 66
2020-09-05 13:00:00 24.2 9 Nordeste 29 Nordeste 0 -- -- 66
2020-09-05 12:00:00 23.7 10 Nordeste 24 Norte 0 -- -- 69
2020-09-05 11:00:00 23.1 8 Este 17 Nordeste 0 -- -- 67
2020-09-05 10:00:00 21.3 6 Nordeste 19 Nordeste 0 -- -- 78
2020-09-05 09:00:00 19 0 Calma 8 Norte 0 -- -- 84
2020-09-05 08:00:00 18.1 2 Sudeste 13 Nordeste 0 -- -- 85
2020-09-05 07:00:00 18.2 0 Calma 7 Nordeste 0 -- -- 84
2020-09-05 06:00:00 18.6 2 Nordeste 8 Nordeste 0 -- -- 80
2020-09-05 05:00:00 19.6 3 Nordeste 10 Este 0 -- -- 63
2020-09-05 04:00:00 20.6 4 Este 19 Nordeste 0 -- -- 55
2020-09-05 03:00:00 21.4 9 Nordeste 26 Nordeste 0 -- -- 49
2020-09-05 02:00:00 20.3 4 Norte 15 Norte 0 -- -- 49
2020-09-05 01:00:00 19.7 5 Nordeste 10 Norte 0 -- -- 53
2020-09-05 00:00:00 20.5 6 Nordeste 18 Nordeste 0 -- -- 53
2020-09-04 23:00:00 22 8 Nordeste 19 Nordeste 0 -- -- 48
2020-09-04 22:00:00 21.1 7 Nordeste 17 Nordeste 0 -- -- 67
2020-09-04 21:00:00 21.5 0 Calma 13 Nordeste 0 -- -- 73
2020-09-04 20:00:00 22.4 5 Nordeste 18 Este 0 -- -- 71
2020-09-04 19:00:00 22.7 10 Nordeste 23 Nordeste 0 -- -- 70
2020-09-04 18:00:00 23.5 12 Nordeste 26 Nordeste 0 -- -- 69
2020-09-04 17:00:00 24.2 12 Nordeste 34 Nordeste 0 -- -- 66
2020-09-04 16:00:00 24.7 13 Nordeste 32 Nordeste 0 -- -- 61
2020-09-04 15:00:00 24.8 10 Nordeste 35 Nordeste 0 -- -- 60
2020-09-04 14:00:00 24.9 13 Nordeste 35 Nordeste 0 -- -- 56
2020-09-04 13:00:00 24.9 8 Nordeste 28 Nordeste 0 -- -- 57
2020-09-04 12:00:00 24.6 8 Norte 23 Nordeste 0 -- -- 56
2020-09-04 11:00:00 24.1 6 Nordeste 24 Nordeste 0 -- -- 54
2020-09-04 10:00:00 22.3 7 Este 23 Nordeste 0 -- -- 59
2020-09-04 09:00:00 20.2 5 Nordeste 15 Este 0 -- -- 59
2020-09-04 08:00:00 19.5 2 Este 17 Este 0 -- -- 57
2020-09-04 07:00:00 19.7 5 Nordeste 21 Nordeste 0 -- -- 57
2020-09-04 06:00:00 19.3 2 Nordeste 13 Nordeste 0 -- -- 58
2020-09-04 05:00:00 19.5 4 Este 24 Nordeste 0 -- -- 61
2020-09-04 04:00:00 19.4 3 Nordeste 13 Este 0 -- -- 71
2020-09-04 03:00:00 19.7 4 Nordeste 18 Nordeste 0 -- -- 65
2020-09-04 02:00:00 20.8 5 Este 21 Sudeste 0 -- -- 71
2020-09-04 01:00:00 21.9 4 Nordeste 18 Norte 0 -- -- 45
2020-09-04 00:00:00 22.6 6 Nordeste 22 Nordeste 0 -- -- 41
2020-09-03 23:00:00 23.3 10 Nordeste 31 Este 0 -- -- 37
2020-09-03 22:00:00 23.4 14 Nordeste 31 Nordeste 0 -- -- 40
2020-09-03 21:00:00 23.9 14 Nordeste 27 Norte 0 -- -- 44
2020-09-03 20:00:00 25.2 8 Este 27 Nordeste 0 -- -- 36
2020-09-03 19:00:00 25.9 7 Sudeste 22 Este 0 -- -- 38
2020-09-03 18:00:00 26.9 7 Este 28 Este 0 -- -- 42
2020-09-03 17:00:00 26.9 12 Este 30 Nordeste 0 -- -- 43
2020-09-03 16:00:00 27 11 Este 32 Nordeste 0 -- -- 45
2020-09-03 15:00:00 26.6 11 Nordeste 31 Nordeste 0 -- -- 50
2020-09-03 14:00:00 26.1 11 Nordeste 33 Nordeste 0 -- -- 57
2020-09-03 13:00:00 25.8 15 Este 33 Nordeste 0 -- -- 54
2020-09-03 12:00:00 25.7 9 Este 31 Norte 0 -- -- 45
2020-09-03 11:00:00 24.1 9 Nordeste 22 Nordeste 0 -- -- 57
2020-09-03 10:00:00 22.4 9 Nordeste 22 Nordeste 0 -- -- 66
2020-09-03 09:00:00 20.6 12 Nordeste 19 Este 0 -- -- 66
2020-09-03 08:00:00 19.1 10 Nordeste 19 Nordeste 0 -- -- 68
2020-09-03 07:00:00 18.3 6 Nordeste 12 Este 0 -- -- 75
2020-09-03 06:00:00 19.4 4 Nordeste 18 Nordeste 0 -- -- 72
2020-09-03 05:00:00 19.3 6 Nordeste 17 Nordeste 0 -- -- 71
2020-09-03 04:00:00 19.2 6 Nordeste 18 Nordeste 0 -- -- 69
2020-09-03 03:00:00 19 2 Nordeste 8 Nordeste 0 -- -- 67
2020-09-03 02:00:00 19.2 3 Nordeste 8 Nordeste 0 -- -- 65
2020-09-03 01:00:00 19.1 0 Calma 7 Este 0 -- -- 61
2020-09-03 00:00:00 20.1 3 Este 10 Este 0 -- -- 59
2020-09-02 23:00:00 20.4 0 Calma 10 Nordeste 0 -- -- 62
2020-09-02 22:00:00 21.1 2 Norte 14 Nordeste 0 -- -- 60
2020-09-02 21:00:00 21.3 0 Calma 8 Nordeste 0 -- -- 65
2020-09-02 20:00:00 21.8 5 Nordeste 11 Nordeste 0 -- -- 66
2020-09-02 19:00:00 22.1 7 Nordeste 21 Nordeste 0 -- -- 63
2020-09-02 18:00:00 23.2 10 Nordeste 22 Nordeste 0 -- -- 51
2020-09-02 17:00:00 24.2 10 Nordeste 23 Nordeste 0 -- -- 46
2020-09-02 16:00:00 25.3 6 Nordeste 23 Nordeste 0 -- -- 45
2020-09-02 15:00:00 25.2 5 Noroeste 16 Sur 0 -- -- 55
2020-09-02 14:00:00 25.2 8 Sudoeste 19 Oeste 0 -- -- 60
2020-09-02 13:00:00 24.7 6 Sudoeste 18 Sudoeste 0 -- -- 58
2020-09-02 12:00:00 23.7 5 Este 15 Sur 0 -- -- 60
2020-09-02 11:00:00 22.1 8 Nordeste 14 Nordeste 0 -- -- 70
2020-09-02 10:00:00 19.9 2 Sudoeste 4 Sur 0 -- -- 80
2020-09-02 09:00:00 17.6 3 Nordeste 5 Nordeste 0 -- -- 85
2020-09-02 08:00:00 16.6 0 Calma 2 Sudeste 0 -- -- 86
2020-09-02 07:00:00 16.5 0 Calma 3 Nordeste 0 -- -- 84
2020-09-02 06:00:00 17 3 Este 5 Este 0 -- -- 85
2020-09-02 05:00:00 17.3 3 Nordeste 5 Este 0 -- -- 82
2020-09-02 04:00:00 17.7 0 Calma 8 Este 0 -- -- 74
2020-09-02 03:00:00 17.9 2 Este 8 Este 0 -- -- 68
2020-09-02 02:00:00 18.2 3 Nordeste 8 Nordeste 0 -- -- 72
2020-09-02 01:00:00 18.3 4 Nordeste 7 Nordeste 0 -- -- 74
2020-09-02 00:00:00 18.8 4 Este 8 Nordeste 0 -- -- 74
2020-09-01 23:00:00 19.1 0 Calma 2 Este 0 -- -- 73
2020-09-01 22:00:00 20 0 Calma 4 Sudoeste 0 -- -- 68
2020-09-01 21:00:00 21.6 3 Sudoeste 10 Sudoeste 0 -- -- 65
2020-09-01 20:00:00 23.6 6 Sudoeste 14 Sudoeste 0 -- -- 56
2020-09-01 19:00:00 24.7 9 Sudoeste 17 Sudoeste 0 -- -- 49
2020-09-01 18:00:00 25.1 8 Sur 17 Sudoeste 0 -- -- 52
2020-09-01 17:00:00 24.5 7 Sudoeste 15 Sudoeste 0 -- -- 52
2020-09-01 16:00:00 24.6 5 Sudoeste 15 Sudoeste 0 -- -- 52
2020-09-01 15:00:00 23.5 6 Sudoeste 13 Sudoeste 0 -- -- 56
2020-09-01 14:00:00 24.4 5 Sudoeste 15 Nordeste 0 -- -- 50
2020-09-01 13:00:00 23.8 3 Sudoeste 17 Nordeste 0 -- -- 47
2020-09-01 12:00:00 24.6 6 Sur 14 Sur 0 -- -- 43
2020-09-01 11:00:00 23.7 3 Sudeste 10 Nordeste 0 -- -- 41
2020-09-01 10:00:00 21.5 3 Nordeste 16 Nordeste 0 -- -- 47
2020-09-01 09:00:00 19 2 Nordeste 7 Nordeste 0 -- -- 55
2020-09-01 08:00:00 17.1 3 Nordeste 5 Este 0 -- -- 61
2020-09-01 07:00:00 17.1 0 Calma 4 Sudeste 0 -- -- 69
2020-09-01 06:00:00 17.3 0 Calma 4 Este 0 -- -- 66
2020-09-01 05:00:00 17.6 0 Calma 6 Nordeste 0 -- -- 67
2020-09-01 04:00:00 18.6 5 Nordeste 12 Nordeste 0 -- -- 45
2020-09-01 03:00:00 19.9 8 Nordeste 18 Nordeste 0 -- -- 47
2020-09-01 02:00:00 20.7 9 Nordeste 19 Nordeste 0 -- -- 44
2020-09-01 01:00:00 18.8 6 Nordeste 10 Nordeste 0 -- -- 67
2020-09-01 00:00:00 19 3 Nordeste 10 Este 0 -- -- 69
2020-08-31 23:00:00 19.4 0 Calma 4 Sur 0 -- -- 71
2020-08-31 22:00:00 20.5 0 Calma 3 Oeste 0 -- -- 64
2020-08-31 21:00:00 22.2 3 Este 8 Sudoeste 0 -- -- 57
2020-08-31 20:00:00 23.4 3 Nordeste 14 Este 0 -- -- 47
2020-08-31 19:00:00 23.5 7 Nordeste 24 Este 0 -- -- 55
2020-08-31 18:00:00 24 10 Nordeste 31 Nordeste 0 -- -- 59
2020-08-31 17:00:00 24.4 10 Nordeste 33 Nordeste 0 -- -- 60
2020-08-31 16:00:00 24.8 14 Nordeste 32 Nordeste 0 -- -- 59
2020-08-31 15:00:00 25.1 15 Nordeste 33 Norte 0 -- -- 56
2020-08-31 14:00:00 25.5 10 Nordeste 33 Este 0 -- -- 49
2020-08-31 13:00:00 24.7 14 Este 30 Nordeste 0 -- -- 55
2020-08-31 12:00:00 24.8 8 Este 29 Nordeste 0 -- -- 54
2020-08-31 11:00:00 23.3 9 Nordeste 26 Nordeste 0 -- -- 63
2020-08-31 10:00:00 22.1 12 Nordeste 23 Nordeste 0 -- -- 62
2020-08-31 09:00:00 20.3 8 Nordeste 21 Nordeste 0 -- -- 69
2020-08-31 08:00:00 19.3 5 Nordeste 22 Norte 0 -- -- 76
2020-08-31 07:00:00 19.5 10 Nordeste 18 Nordeste 0 -- -- 74
2020-08-31 06:00:00 19.5 9 Nordeste 22 Nordeste 0 -- -- 75
2020-08-31 05:00:00 19.6 12 Nordeste 23 Nordeste 0 -- -- 73
2020-08-31 04:00:00 19.1 11 Nordeste 22 Norte 0 -- -- 74
2020-08-31 03:00:00 19.4 8 Nordeste 17 Norte 0 -- -- 72
2020-08-31 02:00:00 19 8 Nordeste 13 Nordeste 0 -- -- 75
2020-08-31 01:00:00 18.8 2 Nordeste 5 Nordeste 0 -- -- 79
2020-08-31 00:00:00 19.3 0 Calma -- -- 0 -- -- 78
2020-08-30 23:00:00 19.8 0 Calma 0 Calma 0 -- -- 76
2020-08-30 22:00:00 20.4 0 Calma 6 Este 0 -- -- 71
2020-08-30 21:00:00 21.5 4 Este 9 Nordeste 0 -- -- 65
2020-08-30 20:00:00 22.6 5 Nordeste 13 Sur 0 -- -- 60
2020-08-30 19:00:00 24.6 7 Sudoeste 21 Sur 0 -- -- 51
2020-08-30 18:00:00 25.1 10 Sur 20 Nordeste 0 -- -- 48
2020-08-30 17:00:00 25.8 8 Norte 28 Nordeste 0 -- -- 35
2020-08-30 16:00:00 25.8 9 Norte 30 Nordeste 0 -- -- 41
2020-08-30 15:00:00 25.6 13 Nordeste 32 Nordeste 0 -- -- 49
2020-08-30 14:00:00 26.3 10 Nordeste 26 Nordeste 0 -- -- 37
2020-08-30 13:00:00 25.2 7 Sudeste 26 Nordeste 0 -- -- 36
2020-08-30 12:00:00 24.1 11 Nordeste 29 Nordeste 0 -- -- 39
2020-08-30 11:00:00 24 12 Nordeste 38 Este 0 -- -- 40
2020-08-30 10:00:00 22.9 19 Norte 41 Nordeste 0 -- -- 45
2020-08-30 09:00:00 22.5 17 Nordeste 36 Nordeste 0 -- -- 44
2020-08-30 08:00:00 22.4 15 Nordeste 34 Nordeste 0 -- -- 34
2020-08-30 07:00:00 22 13 Nordeste 22 Nordeste 0 -- -- 26
2020-08-30 06:00:00 21.4 8 Nordeste 17 Nordeste 0 -- -- 27
2020-08-30 05:00:00 22.6 11 Nordeste 30 Norte 0 -- -- 26
2020-08-30 04:00:00 23.7 11 Norte 32 Norte 0 -- -- 24
2020-08-30 03:00:00 23.7 9 Norte 27 Nordeste 0 -- -- 25
2020-08-30 02:00:00 23.3 9 Sudeste 23 Este 0 -- -- 25
2020-08-30 01:00:00 22.8 4 Nordeste 24 Noroeste 0 -- -- 25
2020-08-30 00:00:00 22.1 2 Sudoeste 13 Oeste 0 -- -- 27
2020-08-29 23:00:00 22.9 0 Calma 14 Oeste 0 -- -- 27
2020-08-29 22:00:00 23.8 2 Sudeste 13 Sudoeste 0 -- -- 25
2020-08-29 21:00:00 25.3 4 Sudoeste 15 Oeste 0 -- -- 24
2020-08-29 20:00:00 26.9 6 Sudoeste 27 Sudoeste 0 -- -- 21
2020-08-29 19:00:00 28.6 8 Sudoeste 40 Sudoeste 0 -- -- 21
2020-08-29 18:00:00 30.4 12 Sudoeste 33 Oeste 0 -- -- 21
2020-08-29 17:00:00 30.5 17 Sudoeste 40 Sudoeste 0 -- -- 19
2020-08-29 16:00:00 31 16 Sudoeste 29 Sudoeste 0 -- -- 17
2020-08-29 15:00:00 30.9 12 Oeste 30 Noroeste 0 -- -- 19
2020-08-29 14:00:00 30.2 10 Sudoeste 35 Sudoeste 0 -- -- 21
2020-08-29 13:00:00 27.2 9 Sudoeste 32 Sudoeste 0 -- -- 27
2020-08-29 12:00:00 25 7 Nordeste 17 Nordeste 0 -- -- 34
2020-08-29 11:00:00 24.7 6 Nordeste 14 Norte 0 -- -- 36
2020-08-29 10:00:00 22.4 3 Este 8 Nordeste 0 -- -- 27
2020-08-29 09:00:00 20 5 Nordeste 10 Nordeste 0 -- -- 36
2020-08-29 08:00:00 19.5 0 Calma 8 Este 0 -- -- 29
2020-08-29 07:00:00 20.4 2 Oeste 18 Sur 0 -- -- 25
2020-08-29 06:00:00 22.4 11 Sudoeste 22 Sudoeste 0 -- -- 42
2020-08-29 05:00:00 23.1 8 Sudoeste 17 Sudoeste 0 -- -- 42
2020-08-29 04:00:00 23.6 5 Sudoeste 24 Sur 0 -- -- 41
2020-08-29 03:00:00 23.9 9 Sudoeste 19 Sudoeste 0 -- -- 40
2020-08-29 02:00:00 24.5 8 Sudoeste 23 Sudoeste 0 -- -- 44
2020-08-29 01:00:00 24.3 3 Sudoeste 13 Sudoeste 0 -- -- 52
2020-08-29 00:00:00 25.3 4 Sudoeste 15 Sudoeste 0 -- -- 52
2020-08-28 23:00:00 26.1 8 Sudoeste 18 Sudoeste 0 -- -- 53
2020-08-28 22:00:00 27.2 11 Sudoeste 21 Sudoeste 0 -- -- 51
2020-08-28 21:00:00 28.9 13 Sudoeste 29 Sudoeste 0 -- -- 46
2020-08-28 20:00:00 32.1 15 Sudoeste 31 Sudoeste 0 -- -- 35
2020-08-28 19:00:00 32.9 8 Oeste 26 Sudoeste 0 -- -- 32
2020-08-28 18:00:00 36.2 11 Sudoeste 38 Sudoeste 0 -- -- 24
2020-08-28 17:00:00 37.3 15 Sudoeste 36 Sudoeste 0 -- -- 20
2020-08-28 16:00:00 38.2 13 Sudoeste 33 Sudoeste 0 -- -- 21
2020-08-28 15:00:00 36.9 7 Oeste 27 Sudoeste 0 -- -- 23
2020-08-28 14:00:00 36.3 21 Sudoeste 36 Sudoeste 0 -- -- 15
2020-08-28 13:00:00 34.6 21 Sudoeste 33 Sudoeste 0 -- -- 14
2020-08-28 12:00:00 32.4 16 Sudoeste 29 Sudoeste 0 -- -- 22
2020-08-28 11:00:00 29.9 10 Sudoeste 18 Sudoeste 0 -- -- 33
2020-08-28 10:00:00 28.3 9 Sudoeste 18 Sur 0 -- -- 32
2020-08-28 09:00:00 24.9 5 Sudoeste 10 Oeste 0 -- -- 40
2020-08-28 08:00:00 24.2 4 Sudoeste 14 Sudoeste 0 -- -- 43
2020-08-28 07:00:00 24.6 4 Sudoeste 15 Sur 0 -- -- 43
2020-08-28 06:00:00 24.9 4 Sudoeste 9 Oeste 0 -- -- 44
2020-08-28 05:00:00 25.4 4 Este 10 Nordeste 0 -- -- 42
2020-08-28 04:00:00 24.2 4 Nordeste 9 Nordeste 0 -- -- 47
2020-08-28 03:00:00 23.9 5 Este 12 Nordeste 0 -- -- 49
2020-08-28 02:00:00 23.7 2 Norte 10 Nordeste 0 -- -- 54
2020-08-28 01:00:00 24.1 5 Nordeste 10 Nordeste 0 -- -- 55
2020-08-28 00:00:00 24.2 3 Este 6 Este 0 -- -- 54
2020-08-27 23:00:00 24.8 0 Calma 5 Nordeste 0 -- -- 56
2020-08-27 22:00:00 25.1 4 Este 7 Nordeste 0 -- -- 56
2020-08-27 21:00:00 27.3 0 Calma 10 Sudoeste 0 -- -- 51
2020-08-27 20:00:00 29.8 5 Oeste 12 Sudoeste 0 -- -- 48
2020-08-27 19:00:00 31.6 7 Sudoeste 16 Oeste 0 -- -- 42
2020-08-27 18:00:00 33.9 9 Sudoeste 18 Sudoeste 0 -- -- 43
2020-08-27 17:00:00 33.4 9 Sudoeste 16 Sudoeste 0 -- -- 46
2020-08-27 16:00:00 33.3 9 Sudoeste 18 Sudoeste 0 -- -- 47
2020-08-27 15:00:00 32.6 10 Sudoeste 17 Sudoeste 0 -- -- 49
2020-08-27 14:00:00 32.3 10 Sudoeste 17 Sudoeste 0 -- -- 49
2020-08-27 13:00:00 31 8 Sudoeste 13 Sur 0 -- -- 53
2020-08-27 12:00:00 29.6 6 Sudoeste 11 Oeste 0 -- -- 56
2020-08-27 11:00:00 27.3 4 Sudoeste 7 Nordeste 0 -- -- 55
2020-08-27 10:00:00 25 2 Sudoeste 4 Oeste 0 -- -- 56
2020-08-27 09:00:00 24.1 0 Calma 5 Nordeste 0 -- -- 45
2020-08-27 08:00:00 22.2 2 Sudeste 7 Nordeste 0 -- -- 53
2020-08-27 07:00:00 21.6 3 Nordeste 6 Nordeste 0 -- -- 67
2020-08-27 06:00:00 21.8 0 Calma 3 Este 0 -- -- 67
2020-08-27 05:00:00 21.6 0 Calma 3 Sudeste 0 -- -- 66
2020-08-27 04:00:00 21.5 0 Calma 0 Calma 0 -- -- 70
2020-08-27 03:00:00 21.9 0 Calma 2 Sudeste 0 -- -- 82
2020-08-27 02:00:00 22.4 0 Calma 4 Nordeste 0 -- -- 77
2020-08-27 01:00:00 22.9 0 Calma 5 Nordeste 0 -- -- 77
2020-08-27 00:00:00 23.9 4 Este 8 Nordeste 0 -- -- 77
2020-08-26 23:00:00 24.8 2 Nordeste 8 Nordeste 0 -- -- 73
2020-08-26 22:00:00 26.1 0 Calma 5 Sudoeste 0 -- -- 70
2020-08-26 21:00:00 27.8 0 Calma 6 Sudoeste 0 -- -- 63
2020-08-26 20:00:00 29.5 3 Sudoeste 10 Sudoeste 0 -- -- 57
2020-08-26 19:00:00 30.7 8 Sudoeste 15 Sudoeste 0 -- -- 55
2020-08-26 18:00:00 32.7 9 Sudoeste 15 Sudoeste 0 -- -- 50
2020-08-26 17:00:00 32.5 9 Sudoeste 17 Sur 0 -- -- 49
2020-08-26 16:00:00 32.4 11 Sudoeste 18 Sudoeste 0 -- -- 52
2020-08-26 15:00:00 31.4 9 Sudoeste 19 Sudoeste 0 -- -- 52
2020-08-26 14:00:00 30.2 12 Sudoeste 20 Sudoeste 0 -- -- 58
2020-08-26 13:00:00 29.8 8 Sur 19 Sudoeste 0 -- -- 57
2020-08-26 12:00:00 29 7 Sudoeste 14 Sudoeste 0 -- -- 56
2020-08-26 11:00:00 26.8 6 Sudoeste 12 Nordeste 0 -- -- 62
2020-08-26 10:00:00 24.7 4 Sudeste 12 Nordeste 0 -- -- 63
2020-08-26 09:00:00 21.7 0 Calma 3 Este 0 -- -- 68
2020-08-26 08:00:00 20.3 0 Calma 4 Este 0 -- -- 76
2020-08-26 07:00:00 20.5 2 Sudeste 6 Nordeste 0 -- -- 75
2020-08-26 06:00:00 20.6 0 Calma 5 Nordeste 0 -- -- 77
2020-08-26 05:00:00 20.8 2 Este 7 Nordeste 0 -- -- 80
2020-08-26 04:00:00 21.6 0 Calma 5 Sur 0 -- -- 79
2020-08-26 03:00:00 21.6 0 Calma 4 Nordeste 0 -- -- 78
2020-08-26 02:00:00 22 0 Calma -- -- 0 -- -- 81
2020-08-26 01:00:00 22.3 0 Calma -- -- 0 -- -- 79
2020-08-26 00:00:00 22.8 0 Calma -- -- 0 -- -- 77